CHS weather

Charleston Air Force Base-International Airport
Charleston, South Carolina, United States

Public forecast

Using degrees Fahrenheit for public forecast. Weather courtesy of forecast.io.

METAR (pilot weather report)

Retrieved 2019/03/23 09:56 UTC (13 minutes ago):

KCHS 230956Z 04004KT 10SM CLR 08/01 A3011 RMK AO2 SLP196 T00830006

TAF (pilot weather forecast)

Retrieved 2019/03/23 06:30 UTC (4 hours ago):

TAF KCHS 230520Z 2306/2406 28007KT P6SM SKC FM231000 01006KT P6SM SKC FM231500 04009KT P6SM SKC FM232000 15006KT P6SM SKC